createdAt,value
2018-04-22T00:01:57.799Z,6.13
2018-04-22T00:04:24.365Z,6.63
2018-04-22T00:06:50.929Z,9.23
2018-04-22T00:09:17.673Z,5.70
2018-04-22T00:11:44.409Z,4.33
2018-04-22T00:14:12.221Z,6.67
2018-04-22T00:16:38.825Z,8.40
2018-04-22T00:19:05.521Z,6.00
2018-04-22T00:21:32.082Z,4.73
2018-04-22T00:24:01.785Z,7.13
2018-04-22T00:26:28.257Z,5.80
2018-04-22T00:28:54.933Z,8.27
2018-04-22T00:31:22.116Z,5.83
2018-04-22T00:33:52.461Z,5.10
2018-04-22T00:36:19.153Z,6.73
2018-04-22T00:38:45.781Z,6.50
2018-04-22T00:41:12.311Z,6.97
2018-04-22T00:43:40.165Z,5.47
2018-04-22T00:46:06.833Z,5.30
2018-04-22T00:48:33.386Z,5.27
2018-04-22T00:51:00.071Z,7.63
2018-04-22T00:53:30.546Z,5.33
2018-04-22T00:55:57.160Z,5.50
2018-04-22T00:58:23.793Z,5.00
2018-04-22T01:00:50.377Z,6.40
2018-04-22T01:03:17.108Z,5.37
2018-04-22T01:05:43.813Z,5.20
2018-04-22T01:08:10.376Z,7.50
2018-04-22T01:10:37.001Z,6.37
2018-04-22T01:13:07.649Z,6.90
2018-04-22T01:15:34.567Z,5.33
2018-04-22T01:18:01.290Z,11.47
2018-04-22T01:20:27.972Z,5.57
2018-04-22T01:23:00.838Z,9.30
2018-04-22T01:25:27.495Z,8.27
2018-04-22T01:27:54.200Z,6.37
2018-04-22T01:30:20.774Z,5.10
2018-04-22T01:32:58.270Z,4.57
2018-04-22T01:35:24.854Z,5.23
2018-04-22T01:37:51.366Z,7.20
2018-04-22T01:40:17.964Z,5.13
2018-04-22T01:42:44.869Z,8.13
2018-04-22T01:45:11.470Z,5.07
2018-04-22T01:47:38.073Z,6.73
2018-04-22T01:50:04.593Z,5.47
2018-04-22T01:52:35.205Z,6.73
2018-04-22T01:55:01.834Z,5.57
2018-04-22T01:57:28.397Z,6.37
2018-04-22T01:59:55.083Z,7.10
2018-04-22T02:02:25.483Z,6.77
2018-04-22T02:04:52.041Z,5.27
2018-04-22T02:07:18.750Z,6.47
2018-04-22T02:09:45.421Z,5.00
2018-04-22T02:12:15.501Z,4.40
2018-04-22T02:14:42.140Z,5.23
2018-04-22T02:17:08.654Z,5.50
2018-04-22T02:19:35.260Z,4.07
2018-04-22T02:22:06.714Z,5.13
2018-04-22T02:24:33.361Z,4.93
2018-04-22T02:27:00.486Z,6.93
2018-04-22T02:29:27.089Z,5.70
2018-04-22T02:31:54.020Z,4.87
2018-04-22T02:34:20.553Z,5.60
2018-04-22T02:36:47.179Z,5.03
2018-04-22T02:39:13.593Z,6.57
2018-04-22T02:41:41.209Z,4.70
2018-04-22T02:44:07.887Z,4.50
2018-04-22T02:46:34.483Z,4.50
2018-04-22T02:49:01.187Z,4.60
2018-04-22T02:51:31.403Z,5.67
2018-04-22T02:53:58.074Z,6.03
2018-04-22T02:56:24.717Z,5.30
2018-04-22T02:58:51.320Z,5.30
2018-04-22T03:01:17.977Z,5.73
2018-04-22T03:03:48.661Z,5.03
2018-04-22T03:06:15.285Z,6.13
2018-04-22T03:08:41.955Z,5.23
2018-04-22T03:11:08.662Z,4.77
2018-04-22T03:13:36.432Z,5.40
2018-04-22T03:16:03.657Z,4.40
2018-04-22T03:18:30.362Z,4.60
2018-04-22T03:20:57.013Z,6.30
2018-04-22T03:23:24.743Z,7.20
2018-04-22T03:25:51.383Z,4.93
2018-04-22T03:28:18.007Z,4.33
2018-04-22T03:30:44.750Z,5.80
2018-04-22T03:33:11.419Z,4.50
2018-04-22T03:35:37.921Z,5.20
2018-04-22T03:38:04.587Z,5.33
2018-04-22T03:40:31.280Z,7.93
2018-04-22T03:43:01.856Z,8.23
2018-04-22T03:45:28.397Z,6.53
2018-04-22T03:47:55.073Z,5.03
2018-04-22T03:50:21.682Z,7.73
2018-04-22T03:52:49.364Z,7.07
2018-04-22T03:55:16.042Z,5.83
2018-04-22T03:57:42.780Z,5.63
2018-04-22T04:00:09.445Z,5.23
2018-04-22T04:02:36.128Z,6.03
2018-04-22T04:05:02.740Z,7.37
2018-04-22T04:07:29.478Z,4.60
2018-04-22T04:09:56.085Z,8.57
2018-04-22T04:12:23.826Z,5.10
2018-04-22T04:14:50.464Z,7.30
2018-04-22T04:17:17.130Z,9.53
2018-04-22T04:19:55.788Z,10.53
2018-04-22T04:22:39.261Z,6.97
2018-04-22T04:28:03.086Z,10.27
2018-04-22T04:30:29.716Z,9.13
2018-04-22T04:33:10.072Z,10.93
2018-04-22T04:35:36.818Z,11.73
2018-04-22T04:38:03.365Z,6.70
2018-04-22T04:40:29.974Z,9.53
2018-04-22T04:43:03.529Z,15.00
2018-04-22T04:45:30.311Z,14.33
2018-04-22T04:47:56.967Z,11.17
2018-04-22T04:50:23.550Z,8.23
2018-04-22T04:52:54.949Z,9.40
2018-04-22T04:55:21.651Z,12.80
2018-04-22T04:57:48.363Z,12.10
2018-04-22T05:00:15.131Z,8.00
2018-04-22T05:02:45.524Z,11.37
2018-04-22T05:05:12.189Z,7.97
2018-04-22T05:07:38.913Z,11.93
2018-04-22T05:10:05.705Z,10.20
2018-04-22T05:12:35.582Z,9.87
2018-04-22T05:15:02.318Z,7.57
2018-04-22T05:17:28.961Z,11.97
2018-04-22T05:19:55.681Z,8.87
2018-04-22T05:22:25.723Z,9.30
2018-04-22T05:24:52.458Z,10.50
2018-04-22T05:27:19.573Z,10.47
2018-04-22T05:29:46.225Z,12.70
2018-04-22T05:32:16.293Z,11.23
2018-04-22T05:34:42.927Z,9.97
2018-04-22T05:37:09.640Z,6.00
2018-04-22T05:39:36.384Z,8.43
2018-04-22T05:42:06.370Z,15.70
2018-04-22T05:44:33.041Z,15.30
2018-04-22T05:46:59.706Z,8.30
2018-04-22T05:49:26.441Z,14.13
2018-04-22T05:51:59.246Z,9.53
2018-04-22T05:54:25.889Z,8.17
2018-04-22T05:56:52.470Z,8.60
2018-04-22T05:59:19.221Z,9.63
2018-04-22T06:01:50.944Z,7.33
2018-04-22T06:04:17.592Z,5.53
2018-04-22T06:06:44.305Z,5.00
2018-04-22T06:09:10.974Z,9.37
2018-04-22T06:11:38.848Z,4.43
2018-04-22T06:14:05.547Z,5.87
2018-04-22T06:16:32.285Z,6.60
2018-04-22T06:18:58.853Z,7.47
2018-04-22T06:21:27.133Z,5.03
2018-04-22T06:23:53.918Z,5.07
2018-04-22T06:26:20.618Z,3.17
2018-04-22T06:28:47.338Z,11.23
2018-04-22T06:31:14.185Z,4.23
2018-04-22T06:33:40.979Z,9.80
2018-04-22T06:36:07.584Z,4.47
2018-04-22T06:38:34.746Z,6.13
2018-04-22T06:41:01.479Z,5.43
2018-04-22T06:43:28.137Z,6.67
2018-04-22T06:45:55.791Z,3.53
2018-04-22T06:48:22.361Z,11.13
2018-04-22T06:50:49.018Z,3.27
2018-04-22T06:53:15.706Z,8.33
2018-04-22T06:55:42.413Z,5.10
2018-04-22T06:58:09.022Z,6.00
2018-04-22T07:00:35.683Z,3.17
2018-04-22T07:03:03.508Z,5.90
2018-04-22T07:05:30.251Z,4.53
2018-04-22T07:07:56.850Z,4.10
2018-04-22T07:10:23.274Z,6.53
2018-04-22T07:12:53.156Z,2.47
2018-04-22T07:15:19.757Z,3.17
2018-04-22T07:17:46.381Z,4.43
2018-04-22T07:20:13.149Z,4.23
2018-04-22T07:22:41.108Z,4.97
2018-04-22T07:25:07.854Z,3.97
2018-04-22T07:27:34.449Z,6.83
2018-04-22T07:30:01.086Z,3.00
2018-04-22T07:32:37.574Z,3.83
2018-04-22T07:35:04.220Z,5.13
2018-04-22T07:37:30.853Z,5.43
2018-04-22T07:39:57.425Z,4.07
2018-04-22T07:42:25.153Z,4.87
2018-04-22T07:44:51.607Z,2.60
2018-04-22T07:47:18.330Z,5.17
2018-04-22T07:49:44.948Z,3.73
2018-04-22T07:52:15.400Z,4.40
2018-04-22T07:54:42.117Z,5.77
2018-04-22T07:57:08.801Z,6.10
2018-04-22T07:59:35.481Z,4.73
2018-04-22T08:02:06.326Z,2.73
2018-04-22T08:04:32.982Z,5.50
2018-04-22T08:06:59.664Z,6.63
2018-04-22T08:09:26.337Z,4.37
2018-04-22T08:11:54.120Z,3.00
2018-04-22T08:14:20.761Z,4.83
2018-04-22T08:16:47.405Z,6.17
2018-04-22T08:19:14.008Z,4.30
2018-04-22T08:21:40.915Z,4.20
2018-04-22T08:24:07.536Z,2.87
2018-04-22T08:26:34.280Z,4.10
2018-04-22T08:29:01.016Z,4.90
2018-04-22T08:31:27.657Z,4.73
2018-04-22T08:33:54.311Z,4.47
2018-04-22T08:36:20.826Z,6.53
2018-04-22T08:38:47.707Z,7.40
2018-04-22T08:41:17.719Z,6.77
2018-04-22T08:43:44.347Z,5.83
2018-04-22T08:46:11.029Z,4.10
2018-04-22T08:48:37.780Z,7.90
2018-04-22T08:51:07.610Z,10.73
2018-04-22T08:53:34.241Z,4.93
2018-04-22T08:56:00.884Z,6.20
2018-04-22T08:58:27.450Z,5.57
2018-04-22T09:00:57.909Z,3.83
2018-04-22T09:03:24.645Z,7.40
2018-04-22T09:05:51.259Z,10.57
2018-04-22T09:08:17.959Z,10.70
2018-04-22T09:10:48.734Z,5.63
2018-04-22T09:13:15.386Z,10.03
2018-04-22T09:15:42.122Z,6.87
2018-04-22T09:18:08.880Z,6.43
2018-04-22T09:20:36.507Z,7.97
2018-04-22T09:23:03.074Z,8.47
2018-04-22T09:25:29.671Z,6.83
2018-04-22T09:27:56.280Z,7.87
2018-04-22T09:30:22.707Z,8.93
2018-04-22T09:32:49.429Z,6.13
2018-04-22T09:35:16.013Z,4.87
2018-04-22T09:37:42.713Z,4.57
2018-04-22T09:40:09.447Z,4.50
2018-04-22T09:42:40.045Z,4.70
2018-04-22T09:45:06.742Z,4.50
2018-04-22T09:47:33.509Z,8.63
2018-04-22T09:50:00.114Z,9.27
2018-04-22T09:52:27.746Z,4.97
2018-04-22T09:54:54.306Z,6.60
2018-04-22T09:57:20.964Z,7.87
2018-04-22T09:59:47.697Z,12.23
2018-04-22T10:02:24.224Z,13.73
2018-04-22T10:04:51.010Z,5.47
2018-04-22T10:07:17.609Z,5.47
2018-04-22T10:09:44.241Z,6.73
2018-04-22T10:12:16.114Z,6.43
2018-04-22T10:14:42.618Z,8.47
2018-04-22T10:17:09.322Z,4.67
2018-04-22T10:19:35.953Z,4.33
2018-04-22T10:22:16.983Z,10.10
2018-04-22T10:24:43.629Z,8.40
2018-04-22T10:27:10.239Z,4.50
2018-04-22T10:29:36.953Z,9.57
2018-04-22T10:32:07.822Z,6.83
2018-04-22T10:34:34.599Z,6.27
2018-04-22T10:37:01.238Z,5.82
2018-04-22T10:39:27.962Z,3.50
2018-04-22T10:41:58.002Z,6.78
2018-04-22T10:44:24.616Z,6.07
2018-04-22T10:46:51.291Z,7.15
2018-04-22T10:49:18.036Z,4.85
2018-04-22T10:51:57.726Z,6.97
2018-04-22T10:54:24.467Z,9.80
2018-04-22T10:56:51.154Z,5.70
2018-04-22T10:59:17.913Z,5.70
2018-04-22T11:01:45.520Z,6.22
2018-04-22T11:04:12.110Z,4.12
2018-04-22T11:06:38.731Z,12.57
2018-04-22T11:09:05.302Z,9.57
2018-04-22T11:11:35.954Z,4.12
2018-04-22T11:14:02.601Z,4.80
2018-04-22T11:16:29.286Z,6.30
2018-04-22T11:18:55.995Z,10.88
2018-04-22T11:21:26.719Z,7.00
2018-04-22T11:23:53.400Z,5.37
2018-04-22T11:26:20.078Z,5.85
2018-04-22T11:28:46.711Z,6.95
2018-04-22T11:31:20.146Z,7.53
2018-04-22T11:33:46.878Z,9.25
2018-04-22T11:36:13.464Z,8.10
2018-04-22T11:38:40.060Z,5.57
2018-04-22T11:41:11.146Z,5.95
2018-04-22T11:43:37.694Z,8.10
2018-04-22T11:46:04.294Z,6.12
2018-04-22T11:48:30.929Z,7.65
2018-04-22T11:51:01.617Z,6.90
2018-04-22T11:53:28.239Z,4.60
2018-04-22T11:55:54.928Z,8.18
2018-04-22T11:58:21.572Z,8.82
2018-04-22T12:00:51.682Z,12.37
2018-04-22T12:03:18.166Z,5.72
2018-04-22T12:05:44.740Z,9.02
2018-04-22T12:08:11.362Z,7.65
2018-04-22T12:10:51.886Z,7.75
2018-04-22T12:13:18.960Z,5.45
2018-04-22T12:15:45.572Z,9.73
2018-04-22T12:18:12.219Z,6.45
2018-04-22T12:20:42.252Z,6.55
2018-04-22T12:23:08.884Z,6.93
2018-04-22T12:25:35.532Z,8.02
2018-04-22T12:28:02.149Z,6.62
2018-04-22T12:30:30.092Z,9.30
2018-04-22T12:32:56.713Z,4.12
2018-04-22T12:35:23.297Z,4.97
2018-04-22T12:37:49.951Z,6.93
2018-04-22T12:40:20.318Z,5.07
2018-04-22T12:42:47.059Z,7.30
2018-04-22T12:45:13.761Z,7.50
2018-04-22T12:47:40.525Z,7.20
2018-04-22T12:50:07.112Z,6.68
2018-04-22T12:52:33.766Z,8.10
2018-04-22T12:55:00.532Z,8.30
2018-04-22T12:57:27.239Z,5.07
2018-04-22T12:59:53.948Z,3.80
2018-04-22T13:02:20.567Z,5.27
2018-04-22T13:04:47.214Z,4.77
2018-04-22T13:07:13.875Z,8.00
2018-04-22T13:09:40.568Z,6.50
2018-04-22T13:12:07.251Z,4.77
2018-04-22T13:14:34.158Z,3.50
2018-04-22T13:17:01.023Z,7.33
2018-04-22T13:19:27.650Z,4.90
2018-04-22T13:21:54.490Z,4.00
2018-04-22T13:24:21.240Z,4.70
2018-04-22T13:26:47.942Z,6.67
2018-04-22T13:29:14.721Z,6.80
2018-04-22T13:31:41.523Z,6.23
2018-04-22T13:34:08.251Z,8.53
2018-04-22T13:36:34.960Z,8.57
2018-04-22T13:39:02.124Z,15.33
2018-04-22T13:41:35.169Z,4.43
2018-04-22T13:44:01.901Z,5.07
2018-04-22T13:46:28.646Z,9.77
2018-04-22T13:48:55.374Z,5.87
2018-04-22T13:51:23.031Z,3.30
2018-04-22T13:53:49.694Z,4.07
2018-04-22T13:56:16.320Z,4.87
2018-04-22T13:58:43.545Z,6.67
2018-04-22T14:01:35.328Z,6.27
2018-04-22T14:04:01.902Z,11.93
2018-04-22T14:06:28.602Z,10.90
2018-04-22T14:08:55.315Z,4.67
2018-04-22T14:11:25.394Z,5.10
2018-04-22T14:13:52.025Z,7.93
2018-04-22T14:16:18.733Z,7.80
2018-04-22T14:18:45.242Z,6.80
2018-04-22T14:21:16.589Z,10.67
2018-04-22T14:23:43.293Z,5.83
2018-04-22T14:26:09.983Z,5.80
2018-04-22T14:28:36.609Z,4.30
2018-04-22T14:31:04.216Z,6.30
2018-04-22T14:33:30.844Z,7.10
2018-04-22T14:35:57.398Z,5.23
2018-04-22T14:38:23.989Z,9.10
2018-04-22T14:40:56.178Z,6.97
2018-04-22T14:43:22.900Z,6.60
2018-04-22T14:46:01.937Z,7.40
2018-04-22T14:48:28.514Z,8.50
2018-04-22T14:50:56.286Z,7.70
2018-04-22T14:53:22.847Z,5.13
2018-04-22T14:55:49.538Z,7.50
2018-04-22T14:58:16.098Z,8.23
2018-04-22T15:00:48.314Z,5.27
2018-04-22T15:03:15.053Z,4.87
2018-04-22T15:05:41.678Z,9.23
2018-04-22T15:08:08.382Z,12.23
2018-04-22T15:10:38.165Z,8.17
2018-04-22T15:13:04.854Z,4.47
2018-04-22T15:15:31.357Z,12.00
2018-04-22T15:17:57.993Z,10.10
2018-04-22T15:20:28.617Z,5.33
2018-04-22T15:22:55.362Z,5.60
2018-04-22T15:25:22.030Z,5.53
2018-04-22T15:27:48.511Z,14.87
2018-04-22T15:30:21.356Z,6.57
2018-04-22T15:32:48.041Z,7.63
2018-04-22T15:35:14.757Z,6.30
2018-04-22T15:37:41.447Z,10.63
2018-04-22T15:40:12.036Z,8.53
2018-04-22T15:42:38.773Z,7.30
2018-04-22T15:45:05.389Z,7.40
2018-04-22T15:47:32.000Z,7.60
2018-04-22T15:50:01.583Z,7.27
2018-04-22T15:52:28.244Z,9.17
2018-04-22T15:54:54.857Z,7.60
2018-04-22T15:57:21.635Z,9.03
2018-04-22T15:59:48.379Z,13.47
2018-04-22T16:02:15.014Z,12.97
2018-04-22T16:04:41.687Z,13.40
2018-04-22T16:07:08.330Z,10.60
2018-04-22T16:09:35.073Z,9.03
2018-04-22T16:12:01.680Z,10.10
2018-04-22T16:14:28.365Z,8.50
2018-04-22T16:16:55.866Z,12.10
2018-04-22T16:19:22.574Z,5.57
2018-04-22T16:21:49.147Z,6.83
2018-04-22T16:24:15.629Z,11.27
2018-04-22T16:26:42.406Z,17.07
2018-04-22T16:29:09.823Z,18.63
2018-04-22T16:31:37.671Z,21.33
2018-04-22T16:34:04.377Z,13.07
2018-04-22T16:36:30.920Z,12.77
2018-04-22T16:38:57.595Z,12.87
2018-04-22T16:41:30.212Z,8.63
2018-04-22T16:43:57.002Z,8.17
2018-04-22T16:46:23.668Z,17.57
2018-04-22T16:48:50.391Z,7.00
2018-04-22T16:51:18.246Z,43.63
2018-04-22T16:53:44.883Z,13.07
2018-04-22T16:56:11.900Z,8.77
2018-04-22T16:58:38.455Z,12.50
2018-04-22T17:01:06.367Z,12.90
2018-04-22T17:03:33.041Z,7.23
2018-04-22T17:05:59.801Z,13.30
2018-04-22T17:08:26.555Z,13.00
2018-04-22T17:10:57.686Z,19.27
2018-04-22T17:13:24.334Z,7.77
2018-04-22T17:15:51.042Z,14.40
2018-04-22T17:18:17.745Z,18.97
2018-04-22T17:20:48.066Z,45.23
2018-04-22T17:23:14.794Z,43.87
2018-04-22T17:25:41.509Z,56.57
2018-04-22T17:28:08.220Z,49.77
2018-04-22T17:30:36.043Z,33.83
2018-04-22T17:33:02.629Z,24.43
2018-04-22T17:35:29.750Z,27.53
2018-04-22T17:37:56.291Z,27.07
2018-04-22T17:40:40.492Z,24.23
2018-04-22T17:43:07.090Z,13.23
2018-04-22T17:45:33.746Z,13.97
2018-04-22T17:48:00.455Z,14.03
2018-04-22T17:50:32.163Z,13.70
2018-04-22T17:52:59.416Z,12.20
2018-04-22T17:55:26.556Z,20.40
2018-04-22T17:57:53.194Z,17.23
2018-04-22T18:00:24.610Z,11.63
2018-04-22T18:02:51.318Z,8.40
2018-04-22T18:05:18.765Z,10.70
2018-04-22T18:07:45.467Z,15.23
2018-04-22T18:10:15.150Z,9.93
2018-04-22T18:12:41.891Z,10.93
2018-04-22T18:15:08.699Z,12.63
2018-04-22T18:17:36.186Z,9.77
2018-04-22T18:20:08.136Z,13.50
2018-04-22T18:22:34.711Z,14.53
2018-04-22T18:25:01.354Z,9.50
2018-04-22T18:27:28.089Z,8.10
2018-04-22T18:29:58.905Z,6.50
2018-04-22T18:32:25.570Z,7.47
2018-04-22T18:34:52.268Z,5.33
2018-04-22T18:37:18.935Z,7.73
2018-04-22T18:39:46.680Z,14.00
2018-04-22T18:42:13.385Z,5.07
2018-04-22T18:44:40.179Z,18.77
2018-04-22T18:47:06.790Z,7.90
2018-04-22T18:49:33.427Z,7.63
2018-04-22T18:52:00.014Z,37.13
2018-04-22T18:54:26.607Z,12.97
2018-04-22T18:56:53.324Z,17.10
2018-04-22T18:59:20.540Z,13.07
2018-04-22T19:01:49.286Z,4.87
2018-04-22T19:04:18.445Z,7.80
2018-04-22T19:06:47.924Z,4.80
2018-04-22T19:09:14.676Z,5.60
2018-04-22T19:11:41.324Z,8.53
2018-04-22T19:14:07.975Z,9.07
2018-04-22T19:16:35.417Z,10.47
2018-04-22T19:19:18.883Z,5.17
2018-04-22T19:21:46.027Z,4.37
2018-04-22T19:24:12.693Z,4.23
2018-04-22T19:26:39.419Z,6.47
2018-04-22T19:29:05.962Z,6.17
2018-04-22T19:31:33.264Z,4.80
2018-04-22T19:34:00.818Z,7.40
2018-04-22T19:36:27.371Z,4.77
2018-04-22T19:38:53.937Z,5.60
2018-04-22T19:41:20.570Z,4.50
2018-04-22T19:43:47.185Z,3.30
2018-04-22T19:46:13.715Z,3.37
2018-04-22T19:48:40.276Z,4.20
2018-04-22T19:51:08.091Z,4.97
2018-04-22T19:53:34.947Z,6.83
2018-04-22T19:56:01.685Z,4.47
2018-04-22T19:58:28.362Z,3.17
2018-04-22T20:00:55.022Z,7.13
2018-04-22T20:03:21.810Z,3.43
2018-04-22T20:05:48.459Z,5.53
2018-04-22T20:08:15.024Z,6.73
2018-04-22T20:10:41.890Z,8.87
2018-04-22T20:13:08.558Z,6.73
2018-04-22T20:15:35.288Z,6.00
2018-04-22T20:18:01.915Z,4.00
2018-04-22T20:20:29.492Z,5.20
2018-04-22T20:22:56.025Z,4.10
2018-04-22T20:25:22.728Z,7.33
2018-04-22T20:27:49.395Z,5.97
2018-04-22T20:30:21.982Z,6.07
2018-04-22T20:32:48.726Z,4.17
2018-04-22T20:35:15.297Z,5.23
2018-04-22T20:37:42.051Z,5.57
2018-04-22T20:40:12.154Z,7.30
2018-04-22T20:42:38.928Z,5.10
2018-04-22T20:45:05.641Z,3.47
2018-04-22T20:47:32.231Z,5.80
2018-04-22T20:50:02.760Z,3.70
2018-04-22T20:52:29.501Z,6.30
2018-04-22T20:54:56.130Z,5.40
2018-04-22T20:57:22.858Z,4.67
2018-04-22T20:59:49.717Z,4.30
2018-04-22T21:02:16.431Z,5.10
2018-04-22T21:04:43.067Z,3.33
2018-04-22T21:07:09.663Z,5.27
2018-04-22T21:09:36.461Z,5.63
2018-04-22T21:12:03.108Z,4.80
2018-04-22T21:14:29.804Z,5.03
2018-04-22T21:16:56.303Z,5.10
2018-04-22T21:19:26.176Z,8.83
2018-04-22T21:21:52.907Z,6.23
2018-04-22T21:24:19.603Z,6.53
2018-04-22T21:26:46.333Z,5.87
2018-04-22T21:29:12.984Z,5.43
2018-04-22T21:31:39.635Z,6.67
2018-04-22T21:34:06.437Z,7.33
2018-04-22T21:36:33.048Z,4.83
2018-04-22T21:38:59.823Z,7.37
2018-04-22T21:41:26.512Z,6.07
2018-04-22T21:43:53.197Z,5.30
2018-04-22T21:46:19.717Z,5.37
2018-04-22T21:48:46.497Z,4.00
2018-04-22T21:51:13.278Z,6.87
2018-04-22T21:53:39.922Z,5.67
2018-04-22T21:56:06.642Z,3.97
2018-04-22T21:58:33.281Z,4.53
2018-04-22T22:00:59.996Z,4.00
2018-04-22T22:03:26.613Z,5.53
2018-04-22T22:05:53.182Z,4.93
2018-04-22T22:08:19.829Z,4.87
2018-04-22T22:10:46.556Z,6.17
2018-04-22T22:13:13.448Z,4.63
2018-04-22T22:15:40.174Z,5.93
2018-04-22T22:18:06.909Z,7.30
2018-04-22T22:20:40.204Z,4.90
2018-04-22T22:23:07.056Z,4.77
2018-04-22T22:25:33.761Z,5.43
2018-04-22T22:28:00.287Z,7.57
2018-04-22T22:30:27.199Z,4.90
2018-04-22T22:32:53.822Z,5.43
2018-04-22T22:35:20.564Z,5.40
2018-04-22T22:37:47.056Z,5.37
2018-04-22T22:40:20.333Z,4.03
2018-04-22T22:42:46.949Z,6.93
2018-04-22T22:45:13.593Z,5.60
2018-04-22T22:47:40.169Z,5.80
2018-04-22T22:50:07.130Z,4.57
2018-04-22T22:52:33.841Z,4.87
2018-04-22T22:55:00.470Z,4.10
2018-04-22T22:57:27.189Z,4.67
2018-04-22T22:59:58.736Z,6.60
2018-04-22T23:02:25.450Z,4.10
2018-04-22T23:04:52.181Z,4.43
2018-04-22T23:07:18.866Z,3.97
2018-04-22T23:09:48.870Z,5.50
2018-04-22T23:12:15.612Z,6.23
2018-04-22T23:14:43.008Z,3.80
2018-04-22T23:17:09.645Z,3.73
2018-04-22T23:19:39.492Z,4.93
2018-04-22T23:22:06.135Z,3.33
2018-04-22T23:24:33.051Z,5.30
2018-04-22T23:26:59.727Z,8.03
2018-04-22T23:29:30.233Z,4.60
2018-04-22T23:31:56.825Z,5.83
2018-04-22T23:34:23.474Z,3.20
2018-04-22T23:36:50.216Z,3.83
2018-04-22T23:39:20.824Z,4.57
2018-04-22T23:41:47.914Z,4.23
2018-04-22T23:44:14.552Z,3.10
2018-04-22T23:46:41.290Z,3.00
2018-04-22T23:49:09.249Z,4.33
2018-04-22T23:51:35.972Z,10.17
2018-04-22T23:54:03.146Z,3.47
2018-04-22T23:56:29.801Z,3.60
2018-04-22T23:59:00.537Z,3.13
